createdAt,value
2023-02-22T00:02:32.480Z,8.99
2023-02-22T00:05:20.065Z,8.95
2023-02-22T00:08:09.187Z,8.98
2023-02-22T00:10:55.244Z,9.00
2023-02-22T00:13:44.769Z,8.98
2023-02-22T00:16:31.064Z,8.92
2023-02-22T00:19:16.734Z,8.90
2023-02-22T00:22:02.364Z,8.85
2023-02-22T00:24:48.400Z,8.83
2023-02-22T00:27:33.792Z,8.80
2023-02-22T00:30:22.974Z,8.75
2023-02-22T00:33:08.398Z,8.75
2023-02-22T00:35:54.947Z,8.78
2023-02-22T00:38:41.751Z,8.81
2023-02-22T00:41:27.277Z,8.85
2023-02-22T00:44:19.818Z,8.90
2023-02-22T00:47:05.540Z,8.88
2023-02-22T00:49:50.993Z,8.86
2023-02-22T00:52:37.045Z,8.83
2023-02-22T00:55:28.476Z,8.86
2023-02-22T00:58:13.656Z,8.86
2023-02-22T01:00:59.088Z,8.89
2023-02-22T01:03:44.876Z,8.90
2023-02-22T01:06:30.281Z,8.89
2023-02-22T01:09:17.241Z,8.96
2023-02-22T01:12:02.406Z,9.02
2023-02-22T01:14:47.584Z,9.06
2023-02-22T01:17:32.956Z,9.08
2023-02-22T01:20:18.692Z,9.10
2023-02-22T01:23:08.034Z,9.10
2023-02-22T01:25:54.294Z,9.08
2023-02-22T01:28:39.656Z,9.00
2023-02-22T01:31:25.494Z,8.96
2023-02-22T01:34:12.788Z,8.90
2023-02-22T01:36:58.485Z,8.86
2023-02-22T01:39:43.844Z,8.83
2023-02-22T01:42:29.473Z,8.81
2023-02-22T01:45:40.106Z,8.79
2023-02-22T01:48:41.431Z,8.72
2023-02-22T01:51:38.929Z,8.64
2023-02-22T01:54:42.167Z,8.61
2023-02-22T01:57:37.490Z,8.62
2023-02-22T02:00:24.331Z,8.61
2023-02-22T02:03:18.058Z,8.65
2023-02-22T02:06:11.777Z,8.70
2023-02-22T02:09:15.001Z,8.70
2023-02-22T02:12:02.628Z,8.70
2023-02-22T02:14:50.997Z,8.72
2023-02-22T02:17:38.789Z,8.75
2023-02-22T02:20:37.175Z,8.75
2023-02-22T02:23:57.072Z,8.75
2023-02-22T02:26:59.288Z,8.79
2023-02-22T02:29:53.822Z,8.82
2023-02-22T02:32:49.782Z,8.80
2023-02-22T02:35:44.515Z,8.77
2023-02-22T02:38:58.015Z,8.75
2023-02-22T02:41:47.952Z,8.69
2023-02-22T02:44:41.089Z,8.65
2023-02-22T02:47:39.998Z,8.66
2023-02-22T02:50:33.427Z,8.67
2023-02-22T02:53:25.612Z,8.59
2023-02-22T02:56:11.562Z,8.53
2023-02-22T02:58:57.035Z,8.49
2023-02-22T03:02:08.306Z,8.48
2023-02-22T03:05:09.113Z,8.49
2023-02-22T03:08:00.494Z,8.50
2023-02-22T03:11:20.010Z,8.55
2023-02-22T03:14:42.041Z,8.58
2023-02-22T03:17:51.247Z,8.56
2023-02-22T03:20:48.204Z,8.56
2023-02-22T03:24:11.874Z,8.57
2023-02-22T03:27:03.260Z,8.59
2023-02-22T03:29:53.746Z,8.57
2023-02-22T03:32:42.584Z,8.62
2023-02-22T03:35:35.062Z,8.61
2023-02-22T03:38:21.326Z,8.62
2023-02-22T03:41:09.773Z,8.62
2023-02-22T03:44:06.610Z,8.60
2023-02-22T03:46:56.734Z,8.60
2023-02-22T03:49:55.618Z,8.61
2023-02-22T03:52:42.996Z,8.62
2023-02-22T03:55:33.430Z,8.62
2023-02-22T03:58:22.485Z,8.60
2023-02-22T04:01:07.996Z,8.57
2023-02-22T04:03:53.343Z,8.54
2023-02-22T04:06:39.562Z,8.54
2023-02-22T04:09:25.173Z,8.54
2023-02-22T04:12:10.425Z,8.52
2023-02-22T04:15:15.476Z,8.50
2023-02-22T04:18:01.349Z,8.47
2023-02-22T04:20:46.748Z,8.44
2023-02-22T04:23:40.487Z,8.48
2023-02-22T04:26:26.882Z,8.45
2023-02-22T04:29:17.170Z,8.43
2023-02-22T04:32:04.291Z,8.43
2023-02-22T04:34:50.107Z,8.40
2023-02-22T04:37:35.422Z,8.41
2023-02-22T04:40:23.922Z,8.44
2023-02-22T04:43:09.584Z,8.45
2023-02-22T04:45:55.278Z,8.43
2023-02-22T04:48:40.479Z,8.41
2023-02-22T04:51:26.199Z,8.38
2023-02-22T04:54:29.956Z,8.33
2023-02-22T04:57:15.400Z,8.34
2023-02-22T05:00:01.426Z,8.33
2023-02-22T05:02:50.790Z,8.33
2023-02-22T05:05:36.181Z,8.34
2023-02-22T05:08:21.659Z,8.33
2023-02-22T05:11:07.189Z,8.32
2023-02-22T05:13:52.632Z,8.32
2023-02-22T05:16:37.857Z,8.37
2023-02-22T05:19:23.452Z,8.40
2023-02-22T05:22:08.679Z,8.38
2023-02-22T05:24:54.005Z,8.33
2023-02-22T05:27:39.280Z,8.25
2023-02-22T05:30:28.464Z,8.22
2023-02-22T05:33:13.926Z,8.24
2023-02-22T05:35:59.107Z,8.27
2023-02-22T05:38:44.913Z,8.29
2023-02-22T05:41:30.237Z,8.30
2023-02-22T05:44:15.502Z,8.25
2023-02-22T05:47:00.688Z,8.23
2023-02-22T05:49:46.532Z,8.26
2023-02-22T05:52:31.826Z,8.26
2023-02-22T05:55:20.086Z,8.24
2023-02-22T05:58:05.908Z,8.24
2023-02-22T06:00:51.356Z,8.21
2023-02-22T06:03:36.497Z,8.16
2023-02-22T06:06:22.481Z,8.17
2023-02-22T06:09:07.955Z,8.19
2023-02-22T06:11:55.814Z,8.19
2023-02-22T06:14:45.791Z,8.17
2023-02-22T06:17:31.256Z,8.23
2023-02-22T06:20:19.297Z,8.28
2023-02-22T06:23:04.558Z,8.31
2023-02-22T06:25:49.733Z,8.31
2023-02-22T06:28:35.207Z,8.32
2023-02-22T06:31:20.606Z,8.34
2023-02-22T06:34:06.263Z,8.34
2023-02-22T06:36:51.668Z,8.33
2023-02-22T06:39:36.633Z,8.33
2023-02-22T06:42:21.987Z,8.32
2023-02-22T06:45:08.209Z,8.30
2023-02-22T06:47:53.606Z,8.31
2023-02-22T06:50:38.860Z,8.35
2023-02-22T06:53:24.156Z,8.42
2023-02-22T06:56:09.512Z,8.45
2023-02-22T06:58:54.699Z,8.52
2023-02-22T07:01:43.444Z,8.57
2023-02-22T07:04:28.561Z,8.61
2023-02-22T07:07:14.025Z,8.70
2023-02-22T07:09:59.189Z,8.74
2023-02-22T07:12:44.497Z,8.77
2023-02-22T07:15:31.300Z,8.78
2023-02-22T07:18:16.907Z,8.83
2023-02-22T07:21:02.250Z,8.80
2023-02-22T07:23:55.146Z,8.79
2023-02-22T07:26:41.946Z,8.85
2023-02-22T07:29:27.577Z,8.91
2023-02-22T07:32:12.766Z,8.96
2023-02-22T07:34:58.115Z,9.01
2023-02-22T07:37:43.869Z,9.07
2023-02-22T07:40:29.750Z,9.12
2023-02-22T07:43:19.095Z,9.15
2023-02-22T07:46:04.945Z,9.10
2023-02-22T07:48:50.271Z,9.09
2023-02-22T07:51:35.625Z,9.12
2023-02-22T07:54:21.111Z,9.13
2023-02-22T07:57:06.522Z,9.15
2023-02-22T07:59:51.929Z,9.13
2023-02-22T08:02:37.151Z,9.07
2023-02-22T08:05:25.130Z,9.05
2023-02-22T08:08:11.580Z,9.02
2023-02-22T08:10:57.035Z,9.03
2023-02-22T08:13:42.314Z,9.09
2023-02-22T08:16:27.618Z,9.14
2023-02-22T08:19:12.878Z,9.16
2023-02-22T08:21:57.977Z,9.22
2023-02-22T08:24:43.436Z,9.29
2023-02-22T08:27:30.430Z,9.31
2023-02-22T08:30:19.783Z,9.27
2023-02-22T08:33:05.975Z,9.33
2023-02-22T08:35:51.982Z,9.36
2023-02-22T08:38:37.706Z,9.41
2023-02-22T08:41:23.494Z,9.46
2023-02-22T08:44:08.981Z,9.47
2023-02-22T08:46:55.118Z,9.49
2023-02-22T08:49:42.074Z,9.56
2023-02-22T08:52:28.324Z,9.61
2023-02-22T08:55:13.652Z,9.67
2023-02-22T08:58:01.332Z,9.69
2023-02-22T09:00:47.306Z,9.77
2023-02-22T09:03:40.057Z,9.81
2023-02-22T09:06:28.346Z,9.80
2023-02-22T09:09:21.480Z,9.79
2023-02-22T09:12:12.413Z,9.95
2023-02-22T09:14:59.401Z,9.89
2023-02-22T09:17:45.274Z,9.86
2023-02-22T09:20:36.254Z,9.93
2023-02-22T09:23:26.066Z,9.98
2023-02-22T09:26:16.102Z,10.05
2023-02-22T09:29:01.863Z,10.05
2023-02-22T09:31:47.474Z,10.04
2023-02-22T09:34:35.282Z,10.09
2023-02-22T09:37:20.799Z,10.04
2023-02-22T09:40:09.855Z,10.08
2023-02-22T09:43:01.159Z,10.19
2023-02-22T09:46:04.780Z,10.30
2023-02-22T09:49:07.691Z,10.32
2023-02-22T09:52:05.190Z,10.42
2023-02-22T09:54:57.965Z,10.51
2023-02-22T09:57:45.010Z,10.66
2023-02-22T10:00:37.874Z,10.69
2023-02-22T10:03:29.783Z,10.72
2023-02-22T10:06:21.141Z,10.73
2023-02-22T10:09:07.860Z,10.77
2023-02-22T10:12:01.310Z,10.77
2023-02-22T10:15:16.100Z,10.78
2023-02-22T10:18:15.226Z,10.71
2023-02-22T10:21:23.575Z,10.58
2023-02-22T10:24:39.596Z,10.43
2023-02-22T10:27:34.186Z,10.46
2023-02-22T10:30:26.801Z,10.47
2023-02-22T10:33:26.603Z,10.58
2023-02-22T10:36:20.049Z,10.71
2023-02-22T10:39:30.158Z,10.83
2023-02-22T10:42:15.663Z,10.85
2023-02-22T10:45:01.263Z,10.91
2023-02-22T10:47:47.960Z,10.94
2023-02-22T10:50:34.682Z,10.93
2023-02-22T10:53:22.512Z,10.90
2023-02-22T10:56:09.148Z,10.86
2023-02-22T10:58:57.618Z,10.93
2023-02-22T11:01:43.011Z,10.94
2023-02-22T11:04:28.254Z,10.99
2023-02-22T11:07:24.671Z,10.98
2023-02-22T11:10:10.179Z,10.91
2023-02-22T11:12:55.533Z,10.86
2023-02-22T11:15:41.155Z,10.86
2023-02-22T11:18:34.914Z,10.81
2023-02-22T11:21:22.840Z,10.83
2023-02-22T11:24:14.187Z,10.81
2023-02-22T11:27:07.792Z,10.80
2023-02-22T11:29:53.403Z,10.75
2023-02-22T11:32:48.120Z,10.80
2023-02-22T11:35:52.696Z,10.91
2023-02-22T11:38:47.117Z,10.98
2023-02-22T11:41:34.272Z,11.00
2023-02-22T11:44:23.737Z,11.03
2023-02-22T11:47:12.115Z,10.99
2023-02-22T11:49:57.874Z,10.93
2023-02-22T11:52:50.340Z,10.94
2023-02-22T11:55:49.770Z,10.96
2023-02-22T11:58:56.482Z,10.98
2023-02-22T12:01:56.601Z,10.92
2023-02-22T12:04:55.483Z,10.84
2023-02-22T12:08:19.817Z,10.87
2023-02-22T12:11:20.213Z,10.99
2023-02-22T12:14:56.276Z,11.05
2023-02-22T12:17:59.293Z,11.05
2023-02-22T12:20:48.233Z,11.06
2023-02-22T12:23:40.622Z,11.12
2023-02-22T12:26:32.389Z,11.20
2023-02-22T12:29:55.405Z,11.27
2023-02-22T12:32:51.100Z,11.21
2023-02-22T12:35:46.609Z,11.17
2023-02-22T12:38:44.210Z,11.13
2023-02-22T12:41:39.513Z,11.22
2023-02-22T12:44:31.474Z,11.33
2023-02-22T12:47:22.807Z,11.36
2023-02-22T12:50:20.272Z,11.38
2023-02-22T12:53:19.779Z,11.35
2023-02-22T12:56:15.841Z,11.33
2023-02-22T12:59:11.156Z,11.36
2023-02-22T13:02:22.418Z,11.31
2023-02-22T13:05:15.371Z,11.19
2023-02-22T13:08:25.211Z,11.15
2023-02-22T13:11:33.424Z,11.17
2023-02-22T13:14:34.125Z,11.10
2023-02-22T13:17:37.643Z,11.00
2023-02-22T13:20:32.113Z,10.94
2023-02-22T13:23:45.453Z,10.99
2023-02-22T13:26:42.327Z,11.06
2023-02-22T13:29:39.667Z,11.16
2023-02-22T13:33:09.951Z,11.26
2023-02-22T13:36:02.495Z,11.21
2023-02-22T13:39:33.926Z,11.16
2023-02-22T13:42:44.044Z,11.18
2023-02-22T13:46:07.181Z,11.18
2023-02-22T13:48:58.635Z,11.22
2023-02-22T13:51:47.804Z,11.24
2023-02-22T13:54:54.748Z,11.25
2023-02-22T13:57:48.620Z,11.22
2023-02-22T14:00:45.965Z,11.23
2023-02-22T14:03:42.370Z,11.21
2023-02-22T14:06:39.239Z,11.18
2023-02-22T14:09:48.059Z,11.15
2023-02-22T14:12:36.627Z,11.14
2023-02-22T14:15:31.215Z,11.12
2023-02-22T14:18:18.079Z,11.03
2023-02-22T14:21:20.309Z,10.97
2023-02-22T14:24:13.855Z,10.92
2023-02-22T14:27:03.544Z,10.85
2023-02-22T14:29:55.807Z,10.85
2023-02-22T14:32:40.962Z,10.90
2023-02-22T14:35:49.211Z,10.91
2023-02-22T14:38:35.636Z,10.83
2023-02-22T14:41:27.549Z,10.82
2023-02-22T14:44:15.614Z,10.86
2023-02-22T14:47:06.105Z,10.87
2023-02-22T14:49:55.068Z,10.84
2023-02-22T14:52:43.346Z,10.81
2023-02-22T14:55:31.772Z,10.76
2023-02-22T14:58:22.559Z,10.70
2023-02-22T15:01:47.413Z,10.68
2023-02-22T15:04:38.856Z,10.61
2023-02-22T15:07:30.523Z,10.60
2023-02-22T15:10:21.790Z,10.56
2023-02-22T15:13:19.838Z,10.54
2023-02-22T15:16:08.739Z,10.55
2023-02-22T15:18:57.324Z,10.58
2023-02-22T15:21:46.642Z,10.57
2023-02-22T15:24:34.710Z,10.48
2023-02-22T15:27:20.191Z,10.39
2023-02-22T15:30:27.244Z,10.34
2023-02-22T15:33:24.508Z,10.30
2023-02-22T15:36:15.721Z,10.22
2023-02-22T15:39:07.854Z,10.21
2023-02-22T15:42:20.764Z,10.21
2023-02-22T15:45:06.388Z,10.24
2023-02-22T15:47:54.588Z,10.19
2023-02-22T15:50:39.870Z,10.11
2023-02-22T15:53:28.333Z,10.01
2023-02-22T15:56:24.180Z,9.94
2023-02-22T15:59:14.276Z,9.92
2023-02-22T16:02:00.419Z,9.89
2023-02-22T16:04:58.163Z,9.89
2023-02-22T16:07:50.159Z,9.83
2023-02-22T16:10:35.408Z,9.80
2023-02-22T16:13:31.498Z,9.78
2023-02-22T16:16:20.716Z,9.75
2023-02-22T16:19:26.717Z,9.73
2023-02-22T16:22:35.004Z,9.70
2023-02-22T16:25:22.482Z,9.69
2023-02-22T16:28:32.444Z,9.67
2023-02-22T16:31:22.843Z,9.63
2023-02-22T16:34:09.097Z,9.60
2023-02-22T16:36:55.591Z,9.56
2023-02-22T16:39:41.821Z,9.48
2023-02-22T16:42:27.382Z,9.42
2023-02-22T16:45:16.464Z,9.39
2023-02-22T16:48:11.544Z,9.31
2023-02-22T16:51:00.865Z,9.23
2023-02-22T16:53:48.660Z,9.18
2023-02-22T16:56:35.284Z,9.12
2023-02-22T16:59:20.847Z,9.12
2023-02-22T17:02:10.357Z,9.14
2023-02-22T17:04:56.220Z,9.14
2023-02-22T17:07:42.161Z,9.07
2023-02-22T17:10:28.921Z,9.04
2023-02-22T17:13:23.044Z,9.01
2023-02-22T17:16:14.083Z,8.98
2023-02-22T17:18:59.260Z,8.95
2023-02-22T17:21:44.708Z,8.93
2023-02-22T17:24:30.114Z,8.93
2023-02-22T17:27:15.479Z,8.92
2023-02-22T17:30:00.636Z,8.94
2023-02-22T17:32:46.072Z,8.95
2023-02-22T17:35:36.490Z,8.95
2023-02-22T17:38:22.836Z,8.88
2023-02-22T17:41:08.107Z,8.83
2023-02-22T17:43:54.255Z,8.78
2023-02-22T17:46:42.483Z,8.77
2023-02-22T17:49:28.081Z,8.76
2023-02-22T17:52:15.768Z,8.73
2023-02-22T17:55:01.017Z,8.70
2023-02-22T17:57:47.301Z,8.69
2023-02-22T18:00:36.384Z,8.68
2023-02-22T18:03:24.993Z,8.67
2023-02-22T18:06:22.614Z,8.64
2023-02-22T18:09:17.645Z,8.64
2023-02-22T18:12:04.135Z,8.64
2023-02-22T18:14:49.645Z,8.59
2023-02-22T18:17:37.320Z,8.54
2023-02-22T18:20:38.014Z,8.55
2023-02-22T18:23:29.734Z,8.50
2023-02-22T18:26:20.005Z,8.50
2023-02-22T18:29:06.806Z,8.49
2023-02-22T18:31:53.553Z,8.47
2023-02-22T18:34:39.557Z,8.49
2023-02-22T18:37:28.187Z,8.46
2023-02-22T18:40:13.458Z,8.43
2023-02-22T18:42:58.602Z,8.42
2023-02-22T18:45:44.034Z,8.38
2023-02-22T18:48:29.618Z,8.36
2023-02-22T18:51:17.272Z,8.38
2023-02-22T18:54:02.499Z,8.37
2023-02-22T18:56:47.911Z,8.39
2023-02-22T18:59:33.684Z,8.41
2023-02-22T19:02:20.420Z,8.42
2023-02-22T19:05:06.400Z,8.41
2023-02-22T19:07:51.434Z,8.41
2023-02-22T19:10:38.624Z,8.40
2023-02-22T19:13:24.048Z,8.39
2023-02-22T19:16:09.886Z,8.39
2023-02-22T19:18:57.506Z,8.40
2023-02-22T19:21:43.276Z,8.38
2023-02-22T19:24:28.676Z,8.34
2023-02-22T19:27:14.352Z,8.39
2023-02-22T19:30:00.435Z,8.39
2023-02-22T19:32:47.507Z,8.40
2023-02-22T19:35:32.706Z,8.39
2023-02-22T19:38:18.120Z,8.36
2023-02-22T19:41:12.414Z,8.32
2023-02-22T19:43:58.578Z,8.32
2023-02-22T19:46:44.464Z,8.31
2023-02-22T19:49:30.218Z,8.30
2023-02-22T19:52:15.791Z,8.26
2023-02-22T19:55:01.487Z,8.27
2023-02-22T19:57:47.092Z,8.25
2023-02-22T20:00:35.492Z,8.18
2023-02-22T20:03:24.690Z,8.13
2023-02-22T20:06:11.253Z,8.09
2023-02-22T20:08:57.317Z,8.04
2023-02-22T20:11:42.896Z,8.04
2023-02-22T20:14:28.484Z,7.98
2023-02-22T20:17:14.126Z,7.92
2023-02-22T20:19:59.497Z,7.87
2023-02-22T20:22:54.314Z,7.81
2023-02-22T20:25:40.485Z,7.74
2023-02-22T20:28:25.796Z,7.71
2023-02-22T20:31:13.777Z,7.66
2023-02-22T20:34:00.617Z,7.56
2023-02-22T20:36:45.914Z,7.54
2023-02-22T20:39:31.690Z,7.52
2023-02-22T20:42:17.200Z,7.43
2023-02-22T20:45:05.793Z,7.42
2023-02-22T20:47:51.787Z,7.38
2023-02-22T20:50:37.043Z,7.38
2023-02-22T20:53:22.722Z,7.32
2023-02-22T20:56:13.643Z,7.26
2023-02-22T20:59:01.402Z,7.19
2023-02-22T21:01:49.997Z,7.10
2023-02-22T21:04:35.564Z,7.07
2023-02-22T21:07:22.308Z,7.05
2023-02-22T21:10:07.658Z,7.08
2023-02-22T21:12:53.968Z,7.07
2023-02-22T21:15:43.481Z,7.00
2023-02-22T21:18:29.007Z,6.99
2023-02-22T21:21:14.911Z,6.96
2023-02-22T21:24:03.302Z,6.98
2023-02-22T21:26:49.108Z,6.93
2023-02-22T21:29:35.461Z,6.89
2023-02-22T21:32:21.077Z,6.89
2023-02-22T21:35:06.907Z,6.89
2023-02-22T21:37:55.126Z,6.91
2023-02-22T21:40:41.839Z,6.90
2023-02-22T21:43:27.561Z,6.91
2023-02-22T21:46:12.806Z,6.86
2023-02-22T21:48:58.594Z,6.85
2023-02-22T21:51:44.805Z,6.83
2023-02-22T21:54:30.038Z,6.79
2023-02-22T21:57:15.486Z,6.74
2023-02-22T22:00:00.827Z,6.74
2023-02-22T22:02:47.992Z,6.71
2023-02-22T22:05:33.905Z,6.65
2023-02-22T22:08:19.513Z,6.64
2023-02-22T22:11:05.841Z,6.62
2023-02-22T22:13:53.645Z,6.58
2023-02-22T22:16:39.226Z,6.53
2023-02-22T22:19:29.422Z,6.48
2023-02-22T22:22:14.762Z,6.46
2023-02-22T22:25:00.119Z,6.40
2023-02-22T22:27:45.945Z,6.37
2023-02-22T22:30:31.533Z,6.39
2023-02-22T22:33:17.627Z,6.38
2023-02-22T22:36:04.550Z,6.35
2023-02-22T22:38:50.439Z,6.32
2023-02-22T22:41:35.842Z,6.32
2023-02-22T22:44:22.269Z,6.27
2023-02-22T22:47:14.043Z,6.28
2023-02-22T22:50:01.398Z,6.30
2023-02-22T22:52:47.102Z,6.29
2023-02-22T22:55:32.743Z,6.24
2023-02-22T22:58:18.108Z,6.21
2023-02-22T23:01:06.573Z,6.20
2023-02-22T23:04:01.333Z,6.14
2023-02-22T23:06:52.131Z,6.05
2023-02-22T23:09:39.321Z,5.97
2023-02-22T23:12:31.355Z,5.97
2023-02-22T23:15:18.100Z,6.04
2023-02-22T23:18:03.743Z,5.96
2023-02-22T23:20:54.963Z,5.93
2023-02-22T23:23:41.081Z,5.91
2023-02-22T23:26:26.991Z,5.86
2023-02-22T23:29:12.364Z,5.85
2023-02-22T23:31:58.621Z,5.84
2023-02-22T23:34:44.204Z,5.82
2023-02-22T23:37:35.254Z,5.81
2023-02-22T23:40:20.786Z,5.85
2023-02-22T23:43:07.623Z,5.79
2023-02-22T23:45:56.711Z,5.77
2023-02-22T23:48:46.579Z,5.76
2023-02-22T23:51:38.992Z,5.77
2023-02-22T23:54:24.375Z,5.82
2023-02-22T23:57:10.237Z,5.82
2023-02-22T23:59:56.076Z,5.86
